createdAt,value
2018-04-08T00:01:57.025Z,71.50
2018-04-08T00:04:24.614Z,71.60
2018-04-08T00:06:52.209Z,71.74
2018-04-08T00:09:19.856Z,72.41
2018-04-08T00:11:47.532Z,72.75
2018-04-08T00:14:15.147Z,72.03
2018-04-08T00:16:42.752Z,72.00
2018-04-08T00:19:10.400Z,72.23
2018-04-08T00:21:37.990Z,72.78
2018-04-08T00:24:05.698Z,72.90
2018-04-08T00:26:33.316Z,72.90
2018-04-08T00:29:00.965Z,71.82
2018-04-08T00:31:28.570Z,71.16
2018-04-08T00:33:56.237Z,71.26
2018-04-08T00:36:23.825Z,72.20
2018-04-08T00:38:51.516Z,73.11
2018-04-08T00:41:19.095Z,73.59
2018-04-08T00:43:46.741Z,73.59
2018-04-08T00:46:14.349Z,73.68
2018-04-08T00:48:42.014Z,73.41
2018-04-08T00:51:09.603Z,73.43
2018-04-08T00:53:37.312Z,73.65
2018-04-08T00:56:04.908Z,73.33
2018-04-08T00:58:32.936Z,73.66
2018-04-08T01:01:00.562Z,73.84
2018-04-08T01:03:28.215Z,74.62
2018-04-08T01:05:56.586Z,74.64
2018-04-08T01:08:24.367Z,74.95
2018-04-08T01:10:52.006Z,74.97
2018-04-08T01:13:19.612Z,75.42
2018-04-08T01:15:47.218Z,75.00
2018-04-08T01:18:14.926Z,75.46
2018-04-08T01:20:42.563Z,75.38
2018-04-08T01:23:10.247Z,75.33
2018-04-08T01:25:37.902Z,74.94
2018-04-08T01:28:05.561Z,75.27
2018-04-08T01:30:33.240Z,75.41
2018-04-08T01:33:00.885Z,75.55
2018-04-08T01:35:28.498Z,75.45
2018-04-08T01:37:56.147Z,75.15
2018-04-08T01:40:23.727Z,74.94
2018-04-08T01:42:51.383Z,75.28
2018-04-08T01:45:19.024Z,75.21
2018-04-08T01:47:46.712Z,76.66
2018-04-08T01:50:14.314Z,76.44
2018-04-08T01:52:41.897Z,76.71
2018-04-08T01:55:09.518Z,76.50
2018-04-08T01:57:37.211Z,76.58
2018-04-08T02:00:04.856Z,76.53
2018-04-08T02:02:32.488Z,76.24
2018-04-08T02:05:00.120Z,76.04
2018-04-08T02:07:27.776Z,75.91
2018-04-08T02:09:55.402Z,76.12
2018-04-08T02:12:22.993Z,75.57
2018-04-08T02:14:50.647Z,75.28
2018-04-08T02:17:18.576Z,75.40
2018-04-08T02:19:46.284Z,75.26
2018-04-08T02:22:13.990Z,75.43
2018-04-08T02:24:41.645Z,75.88
2018-04-08T02:27:09.312Z,76.64
2018-04-08T02:29:37.532Z,76.54
2018-04-08T02:32:05.204Z,76.84
2018-04-08T02:34:32.810Z,76.87
2018-04-08T02:37:00.474Z,76.92
2018-04-08T02:39:28.094Z,76.91
2018-04-08T02:41:55.763Z,76.77
2018-04-08T02:44:23.398Z,76.69
2018-04-08T02:46:51.028Z,76.94
2018-04-08T02:49:18.737Z,77.77
2018-04-08T02:51:46.408Z,77.99
2018-04-08T02:54:14.088Z,78.24
2018-04-08T02:56:41.799Z,78.06
2018-04-08T02:59:09.588Z,78.20
2018-04-08T03:01:37.241Z,78.81
2018-04-08T03:04:05.114Z,78.51
2018-04-08T03:06:32.773Z,78.82
2018-04-08T03:09:00.643Z,78.88
2018-04-08T03:11:28.229Z,79.37
2018-04-08T03:13:55.897Z,79.25
2018-04-08T03:16:23.498Z,79.33
2018-04-08T03:18:51.161Z,78.94
2018-04-08T03:21:18.871Z,78.50
2018-04-08T03:23:46.476Z,78.65
2018-04-08T03:26:14.124Z,78.45
2018-04-08T03:28:42.254Z,78.71
2018-04-08T03:31:10.027Z,79.19
2018-04-08T03:33:37.645Z,79.94
2018-04-08T03:36:05.302Z,80.35
2018-04-08T03:38:32.917Z,79.92
2018-04-08T03:41:00.662Z,79.96
2018-04-08T03:43:28.282Z,79.12
2018-04-08T03:45:55.990Z,79.42
2018-04-08T03:48:25.240Z,80.11
2018-04-08T03:50:52.895Z,79.80
2018-04-08T03:53:20.627Z,79.25
2018-04-08T03:55:48.261Z,79.48
2018-04-08T03:58:16.444Z,79.62
2018-04-08T04:00:44.142Z,80.12
2018-04-08T04:03:11.813Z,81.00
2018-04-08T04:05:39.466Z,80.63
2018-04-08T04:08:07.127Z,80.09
2018-04-08T04:10:34.879Z,80.09
2018-04-08T04:13:02.564Z,80.82
2018-04-08T04:15:30.305Z,80.13
2018-04-08T04:17:58.166Z,80.19
2018-04-08T04:20:37.704Z,79.78
2018-04-08T04:23:17.262Z,79.79
2018-04-08T04:25:56.810Z,78.44
2018-04-08T04:28:24.401Z,80.14
2018-04-08T04:30:52.479Z,80.00
2018-04-08T04:33:20.506Z,80.95
2018-04-08T04:35:48.370Z,80.64
2018-04-08T04:38:16.543Z,80.18
2018-04-08T04:40:44.208Z,79.91
2018-04-08T04:43:11.789Z,80.42
2018-04-08T04:45:39.455Z,80.72
2018-04-08T04:48:07.137Z,81.51
2018-04-08T04:50:34.991Z,80.46
2018-04-08T04:53:02.576Z,79.63
2018-04-08T04:55:30.304Z,80.52
2018-04-08T04:57:58.026Z,80.88
2018-04-08T05:00:25.723Z,80.58
2018-04-08T05:02:53.365Z,80.26
2018-04-08T05:05:21.006Z,80.16
2018-04-08T05:07:48.676Z,79.36
2018-04-08T05:10:16.468Z,79.22
2018-04-08T05:12:44.174Z,79.39
2018-04-08T05:15:11.799Z,79.70
2018-04-08T05:17:39.529Z,75.10
2018-04-08T05:20:07.200Z,67.68
2018-04-08T05:22:35.009Z,62.20
2018-04-08T05:25:02.934Z,58.55
2018-04-08T05:27:30.744Z,56.10
2018-04-08T05:29:58.469Z,54.66
2018-04-08T05:32:26.135Z,57.26
2018-04-08T05:34:53.830Z,64.74
2018-04-08T05:37:21.540Z,68.99
2018-04-08T05:39:49.441Z,69.54
2018-04-08T05:42:17.176Z,70.47
2018-04-08T05:44:44.852Z,70.83
2018-04-08T05:47:12.723Z,71.21
2018-04-08T05:49:40.491Z,70.46
2018-04-08T05:52:08.235Z,70.18
2018-04-08T05:54:36.334Z,69.66
2018-04-08T05:57:04.612Z,69.65
2018-04-08T05:59:32.782Z,69.73
2018-04-08T06:02:00.634Z,69.92
2018-04-08T06:04:28.339Z,68.84
2018-04-08T06:06:56.083Z,67.49
2018-04-08T06:09:23.757Z,68.46
2018-04-08T06:11:54.065Z,67.92
2018-04-08T06:14:22.718Z,68.59
2018-04-08T06:16:50.600Z,67.79
2018-04-08T06:19:18.680Z,65.72
2018-04-08T06:21:46.749Z,65.61
2018-04-08T06:24:14.665Z,66.13
2018-04-08T06:26:42.362Z,65.50
2018-04-08T06:29:09.944Z,65.49
2018-04-08T06:31:37.815Z,65.05
2018-04-08T06:34:05.677Z,63.05
2018-04-08T06:36:33.538Z,63.68
2018-04-08T06:39:01.214Z,64.24
2018-04-08T06:41:28.974Z,63.72
2018-04-08T06:43:56.833Z,61.93
2018-04-08T06:46:25.442Z,61.08
2018-04-08T06:48:53.088Z,62.49
2018-04-08T06:51:20.846Z,63.18
2018-04-08T06:53:49.742Z,61.01
2018-04-08T06:56:18.225Z,61.26
2018-04-08T06:58:45.843Z,61.37
2018-04-08T07:01:13.525Z,61.98
2018-04-08T07:03:41.277Z,61.81
2018-04-08T07:06:09.102Z,62.59
2018-04-08T07:08:37.460Z,62.99
2018-04-08T07:11:05.328Z,60.98
2018-04-08T07:13:33.158Z,59.67
2018-04-08T07:16:01.165Z,60.54
2018-04-08T07:18:29.091Z,61.75
2018-04-08T07:20:56.757Z,60.90
2018-04-08T07:23:24.600Z,59.86
2018-04-08T07:25:53.312Z,60.89
2018-04-08T07:28:21.695Z,59.99
2018-04-08T07:30:49.504Z,59.17
2018-04-08T07:33:17.363Z,60.91
2018-04-08T07:35:45.275Z,60.44
2018-04-08T07:38:13.132Z,58.71
2018-04-08T07:40:40.949Z,57.50
2018-04-08T07:43:09.532Z,56.51
2018-04-08T07:45:37.153Z,55.75
2018-04-08T07:48:04.805Z,53.94
2018-04-08T07:50:32.611Z,54.66
2018-04-08T07:53:00.379Z,53.64
2018-04-08T07:55:28.475Z,52.11
2018-04-08T07:57:56.536Z,51.40
2018-04-08T08:00:24.191Z,50.00
2018-04-08T08:02:52.098Z,46.25
2018-04-08T08:05:19.886Z,46.96
2018-04-08T08:07:48.628Z,48.23
2018-04-08T08:10:16.654Z,45.56
2018-04-08T08:12:44.356Z,44.89
2018-04-08T08:15:12.133Z,45.23
2018-04-08T08:17:40.027Z,44.84
2018-04-08T08:20:08.568Z,43.34
2018-04-08T08:22:36.522Z,42.98
2018-04-08T08:25:04.297Z,44.29
2018-04-08T08:27:32.176Z,48.03
2018-04-08T08:30:00.665Z,48.54
2018-04-08T08:32:28.711Z,45.87
2018-04-08T08:34:56.344Z,44.17
2018-04-08T08:37:23.996Z,46.05
2018-04-08T08:39:51.681Z,44.17
2018-04-08T08:42:19.287Z,45.12
2018-04-08T08:44:47.774Z,45.52
2018-04-08T08:47:15.854Z,43.26
2018-04-08T08:49:44.348Z,41.62
2018-04-08T08:52:12.184Z,43.22
2018-04-08T08:54:39.901Z,41.01
2018-04-08T08:57:07.838Z,42.29
2018-04-08T08:59:35.523Z,39.92
2018-04-08T09:02:03.372Z,40.96
2018-04-08T09:04:31.111Z,40.06
2018-04-08T09:06:59.471Z,39.41
2018-04-08T09:09:27.423Z,39.32
2018-04-08T09:11:55.070Z,39.47
2018-04-08T09:14:22.736Z,39.53
2018-04-08T09:16:50.442Z,39.75
2018-04-08T09:19:22.460Z,39.50
2018-04-08T09:22:09.765Z,40.11
2018-04-08T09:24:42.733Z,38.14
2018-04-08T09:27:10.406Z,39.44
2018-04-08T09:29:38.165Z,38.40
2018-04-08T09:32:06.009Z,38.28
2018-04-08T09:34:33.686Z,37.86
2018-04-08T09:37:01.397Z,38.47
2018-04-08T09:39:29.252Z,37.53
2018-04-08T09:41:56.876Z,38.10
2018-04-08T09:44:24.741Z,37.37
2018-04-08T09:46:52.733Z,37.06
2018-04-08T09:49:20.463Z,37.03
2018-04-08T09:51:48.472Z,36.40
2018-04-08T09:54:16.167Z,37.14
2018-04-08T09:56:43.894Z,34.53
2018-04-08T09:59:11.739Z,33.93
2018-04-08T10:01:47.934Z,35.02
2018-04-08T10:04:15.631Z,34.84
2018-04-08T10:06:43.280Z,32.98
2018-04-08T10:09:10.913Z,32.52
2018-04-08T10:11:38.582Z,34.36
2018-04-08T10:14:06.263Z,34.27
2018-04-08T10:16:33.865Z,34.77
2018-04-08T10:19:01.550Z,33.48
2018-04-08T10:21:29.191Z,33.85
2018-04-08T10:23:56.904Z,34.61
2018-04-08T10:26:24.618Z,36.19
2018-04-08T10:28:52.315Z,33.59
2018-04-08T10:31:19.943Z,33.55
2018-04-08T10:33:47.606Z,34.25
2018-04-08T10:36:15.268Z,34.46
2018-04-08T10:38:42.936Z,32.85
2018-04-08T10:41:10.656Z,31.21
2018-04-08T10:43:39.008Z,32.00
2018-04-08T10:46:06.656Z,32.99
2018-04-08T10:48:34.331Z,30.70
2018-04-08T10:51:02.042Z,31.61
2018-04-08T10:53:29.735Z,33.19
2018-04-08T10:55:57.442Z,32.12
2018-04-08T10:58:25.214Z,31.57
2018-04-08T11:00:52.926Z,31.99
2018-04-08T11:03:20.640Z,30.45
2018-04-08T11:05:48.279Z,31.47
2018-04-08T11:08:16.029Z,31.08
2018-04-08T11:10:43.714Z,30.29
2018-04-08T11:13:11.377Z,31.55
2018-04-08T11:15:39.044Z,31.12
2018-04-08T11:18:06.804Z,30.96
2018-04-08T11:20:34.403Z,30.56
2018-04-08T11:23:02.090Z,29.51
2018-04-08T11:25:29.769Z,29.92
2018-04-08T11:27:57.469Z,30.43
2018-04-08T11:30:25.179Z,31.10
2018-04-08T11:32:52.913Z,30.48
2018-04-08T11:35:21.759Z,29.44
2018-04-08T11:37:49.391Z,30.14
2018-04-08T11:40:17.167Z,30.17
2018-04-08T11:42:44.760Z,29.85
2018-04-08T11:45:12.430Z,29.32
2018-04-08T11:47:40.143Z,29.63
2018-04-08T11:50:07.899Z,29.21
2018-04-08T11:52:35.544Z,28.16
2018-04-08T11:55:03.208Z,29.32
2018-04-08T11:57:30.886Z,28.07
2018-04-08T11:59:58.477Z,28.70
2018-04-08T12:02:26.164Z,28.43
2018-04-08T12:04:53.842Z,27.34
2018-04-08T12:07:21.513Z,28.35
2018-04-08T12:09:49.718Z,28.22
2018-04-08T12:12:17.410Z,28.68
2018-04-08T12:14:45.064Z,29.51
2018-04-08T12:17:12.709Z,28.98
2018-04-08T12:19:40.432Z,28.17
2018-04-08T12:22:10.865Z,29.37
2018-04-08T12:24:38.555Z,27.53
2018-04-08T12:27:10.697Z,27.94
2018-04-08T12:29:38.386Z,26.64
2018-04-08T12:32:06.070Z,27.47
2018-04-08T12:34:33.821Z,29.43
2018-04-08T12:37:01.480Z,29.87
2018-04-08T12:39:29.179Z,28.96
2018-04-08T12:41:56.829Z,28.92
2018-04-08T12:44:24.443Z,26.46
2018-04-08T12:46:52.135Z,26.66
2018-04-08T12:49:20.610Z,26.85
2018-04-08T12:51:48.354Z,27.38
2018-04-08T12:54:16.124Z,27.62
2018-04-08T12:56:43.777Z,26.90
2018-04-08T12:59:11.459Z,26.93
2018-04-08T13:01:39.145Z,27.26
2018-04-08T13:04:06.790Z,27.81
2018-04-08T13:06:34.467Z,27.14
2018-04-08T13:09:02.117Z,28.25
2018-04-08T13:11:29.818Z,27.90
2018-04-08T13:13:57.430Z,27.13
2018-04-08T13:16:25.149Z,27.48
2018-04-08T13:18:52.840Z,26.71
2018-04-08T13:21:20.604Z,27.33
2018-04-08T13:23:48.356Z,27.43
2018-04-08T13:26:16.073Z,27.83
2018-04-08T13:28:43.700Z,27.57
2018-04-08T13:31:11.994Z,27.92
2018-04-08T13:33:39.661Z,27.13
2018-04-08T13:36:07.298Z,27.03
2018-04-08T13:38:34.981Z,28.12
2018-04-08T13:41:02.601Z,27.35
2018-04-08T13:43:30.648Z,27.91
2018-04-08T13:45:58.329Z,27.45
2018-04-08T13:48:26.040Z,28.08
2018-04-08T13:50:53.709Z,27.71
2018-04-08T13:53:21.351Z,26.62
2018-04-08T13:55:49.018Z,28.15
2018-04-08T13:58:16.638Z,26.42
2018-04-08T14:00:44.340Z,27.45
2018-04-08T14:03:11.945Z,27.44
2018-04-08T14:05:39.612Z,26.94
2018-04-08T14:08:07.320Z,26.85
2018-04-08T14:10:34.979Z,27.10
2018-04-08T14:13:02.642Z,27.65
2018-04-08T14:15:30.335Z,28.07
2018-04-08T14:17:58.046Z,27.95
2018-04-08T14:20:25.747Z,27.56
2018-04-08T14:22:53.371Z,27.21
2018-04-08T14:25:21.157Z,26.87
2018-04-08T14:27:48.885Z,27.02
2018-04-08T14:30:16.542Z,28.55
2018-04-08T14:32:44.331Z,27.55
2018-04-08T14:35:11.989Z,27.85
2018-04-08T14:37:39.686Z,27.55
2018-04-08T14:40:07.408Z,27.83
2018-04-08T14:42:35.044Z,26.83
2018-04-08T14:45:02.886Z,26.88
2018-04-08T14:47:30.660Z,27.01
2018-04-08T14:49:58.330Z,27.64
2018-04-08T14:52:25.990Z,27.29
2018-04-08T14:54:53.831Z,28.15
2018-04-08T14:57:21.485Z,28.18
2018-04-08T14:59:49.361Z,28.26
2018-04-08T15:02:17.114Z,28.37
2018-04-08T15:04:45.707Z,29.63
2018-04-08T15:07:13.407Z,29.48
2018-04-08T15:09:41.074Z,27.93
2018-04-08T15:12:08.669Z,28.95
2018-04-08T15:14:36.415Z,28.88
2018-04-08T15:17:04.104Z,29.25
2018-04-08T15:19:31.751Z,28.36
2018-04-08T15:21:59.458Z,27.33
2018-04-08T15:24:27.157Z,27.71
2018-04-08T15:26:54.824Z,28.00
2018-04-08T15:29:22.518Z,27.11
2018-04-08T15:31:50.191Z,27.24
2018-04-08T15:34:17.841Z,27.28
2018-04-08T15:36:45.509Z,28.00
2018-04-08T15:39:13.164Z,27.65
2018-04-08T15:41:40.828Z,27.99
2018-04-08T15:44:08.508Z,27.22
2018-04-08T15:46:36.586Z,27.69
2018-04-08T15:49:05.858Z,28.19
2018-04-08T15:51:33.513Z,28.01
2018-04-08T15:54:01.221Z,28.61
2018-04-08T15:56:29.203Z,27.78
2018-04-08T15:58:56.941Z,27.96
2018-04-08T16:01:24.657Z,28.64
2018-04-08T16:03:52.309Z,29.07
2018-04-08T16:06:19.963Z,27.85
2018-04-08T16:08:47.636Z,28.29
2018-04-08T16:11:16.015Z,27.83
2018-04-08T16:13:43.699Z,28.11
2018-04-08T16:16:11.355Z,29.72
2018-04-08T16:18:39.076Z,30.03
2018-04-08T16:21:06.795Z,29.12
2018-04-08T16:23:34.466Z,29.95
2018-04-08T16:26:02.185Z,28.89
2018-04-08T16:28:30.867Z,28.15
2018-04-08T16:30:58.510Z,31.43
2018-04-08T16:33:26.177Z,36.00
2018-04-08T16:35:53.878Z,37.72
2018-04-08T16:38:21.499Z,37.90
2018-04-08T16:40:49.168Z,40.06
2018-04-08T16:43:16.808Z,40.35
2018-04-08T16:45:44.575Z,40.28
2018-04-08T16:48:12.220Z,41.44
2018-04-08T16:50:39.848Z,40.49
2018-04-08T16:53:07.653Z,40.62
2018-04-08T16:55:35.378Z,39.90
2018-04-08T16:58:03.016Z,40.27
2018-04-08T17:00:30.754Z,40.31
2018-04-08T17:02:58.506Z,41.93
2018-04-08T17:05:26.156Z,42.00
2018-04-08T17:07:54.665Z,43.18
2018-04-08T17:10:22.382Z,42.84
2018-04-08T17:12:50.102Z,44.01
2018-04-08T17:15:17.852Z,45.31
2018-04-08T17:17:45.661Z,44.57
2018-04-08T17:20:14.587Z,42.93
2018-04-08T17:22:42.330Z,42.86
2018-04-08T17:25:10.201Z,43.38
2018-04-08T17:27:38.214Z,42.85
2018-04-08T17:30:06.235Z,43.09
2018-04-08T17:32:34.664Z,44.80
2018-04-08T17:35:02.758Z,44.33
2018-04-08T17:37:30.553Z,44.68
2018-04-08T17:39:59.201Z,45.03
2018-04-08T17:42:26.998Z,44.79
2018-04-08T17:44:54.721Z,44.76
2018-04-08T17:47:22.478Z,45.81
2018-04-08T17:49:51.135Z,45.84
2018-04-08T17:52:18.915Z,45.61
2018-04-08T17:54:47.462Z,46.15
2018-04-08T17:57:15.262Z,46.14
2018-04-08T17:59:42.922Z,46.00
2018-04-08T18:02:10.898Z,46.11
2018-04-08T18:04:38.585Z,45.98
2018-04-08T18:07:06.257Z,46.18
2018-04-08T18:09:33.949Z,47.16
2018-04-08T18:12:01.705Z,47.13
2018-04-08T18:14:29.463Z,45.53
2018-04-08T18:16:57.159Z,47.87
2018-04-08T18:19:26.255Z,49.62
2018-04-08T18:21:54.463Z,48.48
2018-04-08T18:24:22.203Z,48.02
2018-04-08T18:26:49.995Z,48.92
2018-04-08T18:29:17.978Z,49.55
2018-04-08T18:31:46.834Z,49.30
2018-04-08T18:34:14.558Z,48.76
2018-04-08T18:36:42.312Z,49.25
2018-04-08T18:39:10.031Z,49.57
2018-04-08T18:41:38.907Z,49.15
2018-04-08T18:44:07.309Z,50.43
2018-04-08T18:46:34.960Z,50.53
2018-04-08T18:49:02.612Z,49.86
2018-04-08T18:51:30.245Z,50.02
2018-04-08T18:53:58.068Z,50.30
2018-04-08T18:56:26.873Z,47.64
2018-04-08T18:58:54.611Z,49.77
2018-04-08T19:01:22.408Z,51.13
2018-04-08T19:03:50.111Z,49.72
2018-04-08T19:06:17.805Z,49.52
2018-04-08T19:08:45.523Z,49.26
2018-04-08T19:11:14.181Z,48.88
2018-04-08T19:13:41.926Z,50.63
2018-04-08T19:16:09.616Z,51.45
2018-04-08T19:18:37.438Z,52.04
2018-04-08T19:21:05.168Z,52.41
2018-04-08T19:23:33.119Z,51.74
2018-04-08T19:26:00.843Z,51.80
2018-04-08T19:28:28.744Z,51.21
2018-04-08T19:30:56.445Z,50.83
2018-04-08T19:33:24.130Z,50.73
2018-04-08T19:35:51.727Z,51.88
2018-04-08T19:38:19.381Z,51.39
2018-04-08T19:40:47.104Z,50.63
2018-04-08T19:43:14.804Z,51.13
2018-04-08T19:45:42.614Z,51.24
2018-04-08T19:48:10.346Z,50.95
2018-04-08T19:50:37.987Z,51.23
2018-04-08T19:53:05.628Z,52.83
2018-04-08T19:55:33.302Z,53.90
2018-04-08T19:58:00.963Z,54.31
2018-04-08T20:00:28.687Z,53.07
2018-04-08T20:02:56.406Z,52.67
2018-04-08T20:05:24.099Z,50.83
2018-04-08T20:07:51.789Z,51.05
2018-04-08T20:10:19.437Z,51.00
2018-04-08T20:12:47.066Z,50.93
2018-04-08T20:15:14.770Z,51.09
2018-04-08T20:17:42.524Z,52.01
2018-04-08T20:20:10.228Z,52.26
2018-04-08T20:22:37.894Z,52.70
2018-04-08T20:25:05.673Z,51.88
2018-04-08T20:27:33.508Z,51.13
2018-04-08T20:30:01.125Z,50.93
2018-04-08T20:32:28.816Z,51.66
2018-04-08T20:34:56.469Z,51.68
2018-04-08T20:37:24.239Z,51.47
2018-04-08T20:39:51.957Z,51.30
2018-04-08T20:42:19.674Z,51.57
2018-04-08T20:44:47.350Z,52.08
2018-04-08T20:47:15.054Z,51.20
2018-04-08T20:49:42.751Z,51.10
2018-04-08T20:52:10.399Z,51.14
2018-04-08T20:54:38.093Z,50.84
2018-04-08T20:57:05.769Z,51.37
2018-04-08T20:59:33.562Z,51.23
2018-04-08T21:02:02.355Z,52.35
2018-04-08T21:04:30.005Z,53.23
2018-04-08T21:06:57.710Z,53.87
2018-04-08T21:09:25.382Z,52.54
2018-04-08T21:11:53.095Z,51.99
2018-04-08T21:14:20.781Z,51.10
2018-04-08T21:16:48.530Z,51.60
2018-04-08T21:19:16.238Z,53.30
2018-04-08T21:21:43.851Z,53.28
2018-04-08T21:24:11.497Z,53.63
2018-04-08T21:26:39.144Z,53.38
2018-04-08T21:29:06.964Z,52.57
2018-04-08T21:31:34.639Z,51.65
2018-04-08T21:34:02.311Z,52.03
2018-04-08T21:36:30.034Z,51.82
2018-04-08T21:38:57.779Z,51.64
2018-04-08T21:41:25.389Z,52.64
2018-04-08T21:43:53.095Z,52.72
2018-04-08T21:46:20.751Z,51.47
2018-04-08T21:48:48.370Z,51.79
2018-04-08T21:51:16.281Z,51.77
2018-04-08T21:53:43.976Z,53.12
2018-04-08T21:56:11.590Z,53.41
2018-04-08T21:58:39.295Z,53.45
2018-04-08T22:01:06.994Z,53.43
2018-04-08T22:03:34.599Z,55.13
2018-04-08T22:06:02.289Z,54.14
2018-04-08T22:08:29.926Z,55.02
2018-04-08T22:10:57.533Z,54.65
2018-04-08T22:13:25.189Z,54.51
2018-04-08T22:15:52.775Z,53.99
2018-04-08T22:18:20.411Z,53.52
2018-04-08T22:20:48.038Z,53.04
2018-04-08T22:23:15.688Z,54.20
2018-04-08T22:25:43.268Z,53.08
2018-04-08T22:28:10.900Z,54.57
2018-04-08T22:30:38.557Z,55.55
2018-04-08T22:33:06.193Z,54.22
2018-04-08T22:35:34.429Z,53.86
2018-04-08T22:38:02.206Z,55.07
2018-04-08T22:40:29.870Z,55.88
2018-04-08T22:42:57.730Z,56.86
2018-04-08T22:45:25.451Z,56.58
2018-04-08T22:47:53.073Z,56.90
2018-04-08T22:50:20.949Z,57.06
2018-04-08T22:52:48.635Z,56.23
2018-04-08T22:55:16.302Z,57.18
2018-04-08T22:57:43.914Z,57.26
2018-04-08T23:00:12.385Z,58.46
2018-04-08T23:02:40.053Z,59.68
2018-04-08T23:05:07.729Z,59.62
2018-04-08T23:07:35.311Z,60.19
2018-04-08T23:10:03.016Z,59.59
2018-04-08T23:12:30.621Z,59.99
2018-04-08T23:14:59.470Z,60.54
2018-04-08T23:17:27.104Z,60.80
2018-04-08T23:19:54.714Z,61.29
2018-04-08T23:22:22.408Z,60.81
2018-04-08T23:24:50.070Z,60.71
2018-04-08T23:27:17.751Z,60.74
2018-04-08T23:29:45.403Z,61.39
2018-04-08T23:32:12.999Z,61.39
2018-04-08T23:34:40.627Z,61.28
2018-04-08T23:37:08.230Z,62.11
2018-04-08T23:39:35.848Z,61.64
2018-04-08T23:42:03.490Z,62.01
2018-04-08T23:44:31.188Z,62.40
2018-04-08T23:46:58.821Z,62.39
2018-04-08T23:49:26.456Z,63.92
2018-04-08T23:51:54.116Z,65.07
2018-04-08T23:54:21.757Z,63.78
2018-04-08T23:56:49.525Z,63.91
2018-04-08T23:59:17.124Z,63.20
